sensor_id;sensor_type;location;lat;lon;timestamp;pressure;altitude;pressure_sealevel;temperature;humidity
56600;BME280;51832;48.152;11.530;2024-02-21T00:01:28;96460.38;;;6.63;84.45
56600;BME280;51832;48.152;11.530;2024-02-21T00:06:28;96455.72;;;6.73;84.99
56600;BME280;51832;48.152;11.530;2024-02-21T00:11:29;96465.09;;;6.67;85.53
56600;BME280;51832;48.152;11.530;2024-02-21T00:16:29;96454.50;;;6.84;85.07
56600;BME280;51832;48.152;11.530;2024-02-21T00:21:29;96455.88;;;6.49;86.33
56600;BME280;51832;48.152;11.530;2024-02-21T00:26:30;96444.28;;;6.74;86.02
56600;BME280;51832;48.152;11.530;2024-02-21T00:31:30;96432.00;;;6.74;85.87
56600;BME280;51832;48.152;11.530;2024-02-21T00:36:31;96437.00;;;6.61;86.51
56600;BME280;51832;48.152;11.530;2024-02-21T00:41:32;96429.28;;;6.68;87.04
56600;BME280;51832;48.152;11.530;2024-02-21T00:46:32;96426.53;;;6.61;85.90
56600;BME280;51832;48.152;11.530;2024-02-21T00:51:32;96419.19;;;6.57;86.37
56600;BME280;51832;48.152;11.530;2024-02-21T00:56:33;96418.03;;;6.59;86.16
56600;BME280;51832;48.152;11.530;2024-02-21T01:01:33;96428.50;;;6.59;87.13
56600;BME280;51832;48.152;11.530;2024-02-21T01:06:34;96422.59;;;6.65;85.50
56600;BME280;51832;48.152;11.530;2024-02-21T01:11:34;96414.38;;;6.46;87.46
56600;BME280;51832;48.152;11.530;2024-02-21T01:16:35;96412.66;;;6.61;86.17
56600;BME280;51832;48.152;11.530;2024-02-21T01:21:35;96408.81;;;6.49;87.64
56600;BME280;51832;48.152;11.530;2024-02-21T01:26:36;96397.06;;;6.45;87.45
56600;BME280;51832;48.152;11.530;2024-02-21T01:31:36;96400.09;;;6.56;87.75
56600;BME280;51832;48.152;11.530;2024-02-21T01:36:37;96385.91;;;6.51;87.83
56600;BME280;51832;48.152;11.530;2024-02-21T01:41:37;96386.56;;;6.75;86.13
56600;BME280;51832;48.152;11.530;2024-02-21T01:46:38;96383.78;;;6.77;86.15
56600;BME280;51832;48.152;11.530;2024-02-21T01:51:39;96376.09;;;6.53;87.43
56600;BME280;51832;48.152;11.530;2024-02-21T01:56:40;96371.22;;;6.50;87.54
56600;BME280;51832;48.152;11.530;2024-02-21T02:01:40;96356.66;;;6.55;87.31
56600;BME280;51832;48.152;11.530;2024-02-21T02:06:42;96354.34;;;6.75;86.35
56600;BME280;51832;48.152;11.530;2024-02-21T02:11:43;96349.63;;;6.70;86.48
56600;BME280;51832;48.152;11.530;2024-02-21T02:16:46;96336.00;;;6.83;86.12
56600;BME280;51832;48.152;11.530;2024-02-21T02:21:51;96339.59;;;6.82;85.51
56600;BME280;51832;48.152;11.530;2024-02-21T02:26:56;96325.41;;;6.76;85.62
56600;BME280;51832;48.152;11.530;2024-02-21T02:31:56;96318.16;;;7.01;84.71
56600;BME280;51832;48.152;11.530;2024-02-21T02:36:57;96322.41;;;7.02;84.36
56600;BME280;51832;48.152;11.530;2024-02-21T02:41:57;96320.13;;;6.99;84.06
56600;BME280;51832;48.152;11.530;2024-02-21T02:46:58;96314.72;;;7.01;83.87
56600;BME280;51832;48.152;11.530;2024-02-21T02:51:58;96304.28;;;7.30;82.56
56600;BME280;51832;48.152;11.530;2024-02-21T02:56:58;96293.53;;;6.96;83.83
56600;BME280;51832;48.152;11.530;2024-02-21T03:01:59;96293.00;;;7.15;83.62
56600;BME280;51832;48.152;11.530;2024-02-21T03:06:59;96304.00;;;7.25;83.30
56600;BME280;51832;48.152;11.530;2024-02-21T03:12:00;96290.22;;;7.31;82.22
56600;BME280;51832;48.152;11.530;2024-02-21T03:17:03;96284.50;;;6.98;84.18
56600;BME280;51832;48.152;11.530;2024-02-21T03:22:03;96289.00;;;6.90;83.38
56600;BME280;51832;48.152;11.530;2024-02-21T03:27:06;96288.78;;;6.76;84.71
56600;BME280;51832;48.152;11.530;2024-02-21T03:32:06;96283.47;;;6.85;83.32
56600;BME280;51832;48.152;11.530;2024-02-21T03:37:07;96294.28;;;6.67;84.40
56600;BME280;51832;48.152;11.530;2024-02-21T03:42:08;96289.72;;;6.98;83.12
56600;BME280;51832;48.152;11.530;2024-02-21T03:47:08;96292.59;;;6.89;82.99
56600;BME280;51832;48.152;11.530;2024-02-21T03:52:10;96272.03;;;6.86;83.61
56600;BME280;51832;48.152;11.530;2024-02-21T03:57:11;96274.59;;;6.94;82.87
56600;BME280;51832;48.152;11.530;2024-02-21T04:02:11;96279.69;;;6.87;83.31
56600;BME280;51832;48.152;11.530;2024-02-21T04:07:15;96281.97;;;6.90;82.98
56600;BME280;51832;48.152;11.530;2024-02-21T04:12:15;96278.72;;;6.88;82.81
56600;BME280;51832;48.152;11.530;2024-02-21T04:17:16;96270.03;;;6.88;82.84
56600;BME280;51832;48.152;11.530;2024-02-21T04:22:16;96259.38;;;6.74;83.17
56600;BME280;51832;48.152;11.530;2024-02-21T04:27:17;96254.69;;;6.70;83.20
56600;BME280;51832;48.152;11.530;2024-02-21T04:32:17;96245.69;;;7.02;81.55
56600;BME280;51832;48.152;11.530;2024-02-21T04:37:18;96235.97;;;7.10;81.65
56600;BME280;51832;48.152;11.530;2024-02-21T04:42:19;96240.47;;;7.17;81.06
56600;BME280;51832;48.152;11.530;2024-02-21T04:47:19;96226.75;;;7.14;81.12
56600;BME280;51832;48.152;11.530;2024-02-21T04:52:20;96222.50;;;7.13;81.43
56600;BME280;51832;48.152;11.530;2024-02-21T04:57:20;96209.72;;;6.89;82.11
56600;BME280;51832;48.152;11.530;2024-02-21T05:02:20;96201.31;;;6.94;81.78
56600;BME280;51832;48.152;11.530;2024-02-21T05:07:24;96197.25;;;6.91;81.60
56600;BME280;51832;48.152;11.530;2024-02-21T05:12:24;96190.81;;;8.59;100.00
56600;BME280;51832;48.152;11.530;2024-02-21T05:17:25;96168.72;;;9.77;96.53
56600;BME280;51832;48.152;11.530;2024-02-21T05:22:25;96168.22;;;10.21;82.39
56600;BME280;51832;48.152;11.530;2024-02-21T05:27:26;96156.06;;;8.91;72.40
56600;BME280;51832;48.152;11.530;2024-02-21T05:32:26;96161.41;;;7.57;77.23
56600;BME280;51832;48.152;11.530;2024-02-21T05:37:27;96155.84;;;7.09;80.67
56600;BME280;51832;48.152;11.530;2024-02-21T05:42:27;96147.38;;;6.93;80.89
56600;BME280;51832;48.152;11.530;2024-02-21T05:47:28;96160.00;;;6.74;80.91
56600;BME280;51832;48.152;11.530;2024-02-21T05:52:29;96148.56;;;6.75;80.36
56600;BME280;51832;48.152;11.530;2024-02-21T05:57:29;96127.97;;;6.43;82.21
56600;BME280;51832;48.152;11.530;2024-02-21T06:02:30;96128.47;;;6.09;82.60
56600;BME280;51832;48.152;11.530;2024-02-21T06:07:30;96122.13;;;6.41;82.36
56600;BME280;51832;48.152;11.530;2024-02-21T06:12:31;96115.81;;;6.50;81.49
56600;BME280;51832;48.152;11.530;2024-02-21T06:17:31;96122.75;;;6.28;80.99
56600;BME280;51832;48.152;11.530;2024-02-21T06:22:32;96118.31;;;6.14;82.26
56600;BME280;51832;48.152;11.530;2024-02-21T06:27:32;96110.81;;;6.11;81.64
56600;BME280;51832;48.152;11.530;2024-02-21T06:32:33;96098.50;;;6.34;80.72
56600;BME280;51832;48.152;11.530;2024-02-21T06:37:33;96099.59;;;6.25;80.36
56600;BME280;51832;48.152;11.530;2024-02-21T06:42:34;96106.44;;;6.70;78.11
56600;BME280;51832;48.152;11.530;2024-02-21T06:47:34;96126.81;;;6.60;78.89
56600;BME280;51832;48.152;11.530;2024-02-21T06:52:36;96126.63;;;7.06;76.19
56600;BME280;51832;48.152;11.530;2024-02-21T06:57:36;96111.56;;;6.78;77.64
56600;BME280;51832;48.152;11.530;2024-02-21T07:02:37;96108.22;;;6.70;78.78
56600;BME280;51832;48.152;11.530;2024-02-21T07:07:37;96093.78;;;6.89;76.98
56600;BME280;51832;48.152;11.530;2024-02-21T07:12:38;96103.63;;;6.87;75.79
56600;BME280;51832;48.152;11.530;2024-02-21T07:17:43;96105.25;;;6.88;75.49
56600;BME280;51832;48.152;11.530;2024-02-21T07:22:44;96093.94;;;7.02;74.90
56600;BME280;51832;48.152;11.530;2024-02-21T07:27:44;96096.03;;;7.28;73.98
56600;BME280;51832;48.152;11.530;2024-02-21T07:32:45;96090.81;;;7.28;72.79
56600;BME280;51832;48.152;11.530;2024-02-21T07:37:45;96095.91;;;7.14;72.70
56600;BME280;51832;48.152;11.530;2024-02-21T07:42:46;96066.75;;;7.39;71.70
56600;BME280;51832;48.152;11.530;2024-02-21T07:47:46;96073.91;;;7.94;69.48
56600;BME280;51832;48.152;11.530;2024-02-21T07:52:47;96069.63;;;8.14;68.34
56600;BME280;51832;48.152;11.530;2024-02-21T07:57:47;96067.03;;;8.90;65.05
56600;BME280;51832;48.152;11.530;2024-02-21T08:02:48;96048.81;;;8.75;64.09
56600;BME280;51832;48.152;11.530;2024-02-21T08:07:49;96026.00;;;8.76;62.05
56600;BME280;51832;48.152;11.530;2024-02-21T08:12:50;96022.91;;;9.13;62.25
56600;BME280;51832;48.152;11.530;2024-02-21T08:17:50;96020.31;;;9.33;59.46
56600;BME280;51832;48.152;11.530;2024-02-21T08:22:50;96017.50;;;9.74;58.13
56600;BME280;51832;48.152;11.530;2024-02-21T08:27:51;96008.00;;;9.93;60.33
56600;BME280;51832;48.152;11.530;2024-02-21T08:32:52;96021.66;;;10.54;78.85
56600;BME280;51832;48.152;11.530;2024-02-21T08:37:54;96007.16;;;11.28;72.67
56600;BME280;51832;48.152;11.530;2024-02-21T08:42:54;96030.22;;;10.94;55.07
56600;BME280;51832;48.152;11.530;2024-02-21T08:47:55;96031.38;;;10.60;55.15
56600;BME280;51832;48.152;11.530;2024-02-21T08:52:55;96017.84;;;10.50;55.20
56600;BME280;51832;48.152;11.530;2024-02-21T08:57:56;96019.88;;;10.42;55.42
56600;BME280;51832;48.152;11.530;2024-02-21T09:02:56;96011.84;;;9.51;58.14
56600;BME280;51832;48.152;11.530;2024-02-21T09:07:57;95996.31;;;11.11;54.69
56600;BME280;51832;48.152;11.530;2024-02-21T09:12:57;96011.22;;;10.92;52.54
56600;BME280;51832;48.152;11.530;2024-02-21T09:17:57;96005.34;;;11.28;52.96
56600;BME280;51832;48.152;11.530;2024-02-21T09:22:58;96010.13;;;11.69;51.05
56600;BME280;51832;48.152;11.530;2024-02-21T09:28:00;96017.22;;;11.69;51.27
56600;BME280;51832;48.152;11.530;2024-02-21T09:33:01;96008.69;;;11.73;50.36
56600;BME280;51832;48.152;11.530;2024-02-21T09:38:02;95995.72;;;11.72;48.96
56600;BME280;51832;48.152;11.530;2024-02-21T09:43:03;96001.84;;;12.16;47.78
56600;BME280;51832;48.152;11.530;2024-02-21T09:53:14;95996.03;;;12.07;46.99
56600;BME280;51832;48.152;11.530;2024-02-21T09:58:15;95991.31;;;12.16;47.75
56600;BME280;51832;48.152;11.530;2024-02-21T10:03:16;95989.31;;;12.11;47.92
56600;BME280;51832;48.152;11.530;2024-02-21T10:08:17;95991.81;;;12.24;46.91
56600;BME280;51832;48.152;11.530;2024-02-21T10:13:30;95977.28;;;12.33;46.20
56600;BME280;51832;48.152;11.530;2024-02-21T10:18:31;95971.28;;;12.26;46.32
56600;BME280;51832;48.152;11.530;2024-02-21T10:23:48;95962.16;;;12.04;47.50
56600;BME280;51832;48.152;11.530;2024-02-21T10:28:49;95957.31;;;12.92;44.23
56600;BME280;51832;48.152;11.530;2024-02-21T10:34:01;95956.28;;;12.93;44.76
56600;BME280;51832;48.152;11.530;2024-02-21T10:39:05;95943.41;;;13.15;44.18
56600;BME280;51832;48.152;11.530;2024-02-21T10:44:07;95934.22;;;12.99;44.83
56600;BME280;51832;48.152;11.530;2024-02-21T10:49:12;95916.16;;;13.79;43.22
56600;BME280;51832;48.152;11.530;2024-02-21T10:59:26;95887.75;;;14.50;40.44
56600;BME280;51832;48.152;11.530;2024-02-21T11:04:30;95880.53;;;14.34;39.54
56600;BME280;51832;48.152;11.530;2024-02-21T11:09:32;95868.00;;;14.29;38.25
56600;BME280;51832;48.152;11.530;2024-02-21T11:14:33;95870.53;;;14.24;36.73
56600;BME280;51832;48.152;11.530;2024-02-21T11:19:37;95852.44;;;13.93;36.04
56600;BME280;51832;48.152;11.530;2024-02-21T11:24:37;95831.63;;;14.65;35.90
56600;BME280;51832;48.152;11.530;2024-02-21T11:29:45;95827.66;;;14.10;34.42
56600;BME280;51832;48.152;11.530;2024-02-21T11:34:58;95816.31;;;14.27;33.60
56600;BME280;51832;48.152;11.530;2024-02-21T11:40:03;95811.25;;;14.25;34.22
56600;BME280;51832;48.152;11.530;2024-02-21T11:45:04;95803.78;;;14.34;32.98
56600;BME280;51832;48.152;11.530;2024-02-21T11:50:13;95790.19;;;14.30;33.71
56600;BME280;51832;48.152;11.530;2024-02-21T11:55:14;95783.47;;;14.68;31.79
56600;BME280;51832;48.152;11.530;2024-02-21T12:00:18;95780.50;;;14.64;32.64
56600;BME280;51832;48.152;11.530;2024-02-21T12:05:22;95763.38;;;15.17;32.48
56600;BME280;51832;48.152;11.530;2024-02-21T12:10:22;95749.13;;;15.06;31.97
56600;BME280;51832;48.152;11.530;2024-02-21T12:15:23;95732.75;;;15.48;31.02
56600;BME280;51832;48.152;11.530;2024-02-21T12:20:25;95730.16;;;15.70;29.19
56600;BME280;51832;48.152;11.530;2024-02-21T12:25:26;95718.16;;;16.11;28.62
56600;BME280;51832;48.152;11.530;2024-02-21T12:30:27;95710.47;;;16.41;27.76
56600;BME280;51832;48.152;11.530;2024-02-21T12:35:27;95708.75;;;16.84;26.71
56600;BME280;51832;48.152;11.530;2024-02-21T12:40:28;95687.63;;;17.46;26.20
56600;BME280;51832;48.152;11.530;2024-02-21T12:45:32;95675.34;;;17.40;25.46
56600;BME280;51832;48.152;11.530;2024-02-21T12:50:34;95665.69;;;17.76;25.46
56600;BME280;51832;48.152;11.530;2024-02-21T12:55:35;95668.59;;;17.22;25.22
56600;BME280;51832;48.152;11.530;2024-02-21T13:00:35;95652.53;;;17.02;25.44
56600;BME280;51832;48.152;11.530;2024-02-21T13:05:36;95638.34;;;16.86;25.69
56600;BME280;51832;48.152;11.530;2024-02-21T13:10:37;95622.56;;;17.69;25.11
56600;BME280;51832;48.152;11.530;2024-02-21T13:15:38;95611.75;;;18.41;25.39
56600;BME280;51832;48.152;11.530;2024-02-21T13:20:44;95609.91;;;17.39;24.91
56600;BME280;51832;48.152;11.530;2024-02-21T13:25:44;95600.69;;;17.62;24.34
56600;BME280;51832;48.152;11.530;2024-02-21T13:30:45;95602.53;;;16.99;25.29
56600;BME280;51832;48.152;11.530;2024-02-21T13:35:46;95579.03;;;17.33;25.20
56600;BME280;51832;48.152;11.530;2024-02-21T13:40:46;95573.16;;;17.26;25.24
56600;BME280;51832;48.152;11.530;2024-02-21T13:46:05;95565.63;;;17.85;24.93
56600;BME280;51832;48.152;11.530;2024-02-21T13:51:10;95554.19;;;18.35;24.31
56600;BME280;51832;48.152;11.530;2024-02-21T13:56:12;95552.09;;;18.17;24.50
56600;BME280;51832;48.152;11.530;2024-02-21T14:01:12;95531.25;;;18.75;23.80
56600;BME280;51832;48.152;11.530;2024-02-21T14:06:12;95527.13;;;19.13;23.85
56600;BME280;51832;48.152;11.530;2024-02-21T14:11:13;95518.66;;;18.91;24.12
56600;BME280;51832;48.152;11.530;2024-02-21T14:16:14;95509.22;;;19.24;23.54
56600;BME280;51832;48.152;11.530;2024-02-21T14:21:15;95503.97;;;19.58;23.12
56600;BME280;51832;48.152;11.530;2024-02-21T14:26:15;95509.06;;;19.54;23.42
56600;BME280;51832;48.152;11.530;2024-02-21T14:31:16;95494.09;;;20.26;23.13
56600;BME280;51832;48.152;11.530;2024-02-21T14:36:17;95473.09;;;21.57;21.20
56600;BME280;51832;48.152;11.530;2024-02-21T14:41:18;95461.22;;;22.28;20.63
56600;BME280;51832;48.152;11.530;2024-02-21T14:46:19;95456.53;;;22.53;20.14
56600;BME280;51832;48.152;11.530;2024-02-21T14:51:19;95457.00;;;21.39;21.13
56600;BME280;51832;48.152;11.530;2024-02-21T14:56:19;95457.88;;;21.72;21.05
56600;BME280;51832;48.152;11.530;2024-02-21T15:01:20;95449.22;;;21.42;21.42
56600;BME280;51832;48.152;11.530;2024-02-21T15:06:20;95440.38;;;20.99;21.69
56600;BME280;51832;48.152;11.530;2024-02-21T15:11:21;95450.78;;;20.58;22.20
56600;BME280;51832;48.152;11.530;2024-02-21T15:16:22;95450.22;;;20.32;26.91
56600;BME280;51832;48.152;11.530;2024-02-21T15:21:23;95440.19;;;19.12;24.21
56600;BME280;51832;48.152;11.530;2024-02-21T15:26:24;95447.34;;;19.16;24.30
56600;BME280;51832;48.152;11.530;2024-02-21T15:31:24;95433.25;;;18.41;25.51
56600;BME280;51832;48.152;11.530;2024-02-21T15:36:25;95434.91;;;18.07;26.18
56600;BME280;51832;48.152;11.530;2024-02-21T15:41:26;95440.53;;;17.80;26.50
56600;BME280;51832;48.152;11.530;2024-02-21T15:46:26;95437.84;;;17.55;26.85
56600;BME280;51832;48.152;11.530;2024-02-21T15:51:27;95436.78;;;17.56;27.49
56600;BME280;51832;48.152;11.530;2024-02-21T15:56:27;95424.25;;;17.36;27.77
56600;BME280;51832;48.152;11.530;2024-02-21T16:01:28;95417.84;;;17.17;28.22
56600;BME280;51832;48.152;11.530;2024-02-21T16:06:33;95412.00;;;17.40;28.13
56600;BME280;51832;48.152;11.530;2024-02-21T16:11:35;95413.59;;;17.36;28.51
56600;BME280;51832;48.152;11.530;2024-02-21T16:16:35;95404.84;;;17.35;28.93
56600;BME280;51832;48.152;11.530;2024-02-21T16:21:38;95403.75;;;17.36;30.04
56600;BME280;51832;48.152;11.530;2024-02-21T16:26:39;95396.31;;;17.38;30.01
56600;BME280;51832;48.152;11.530;2024-02-21T16:31:40;95396.03;;;17.15;29.16
56600;BME280;51832;48.152;11.530;2024-02-21T16:36:40;95391.44;;;16.85;29.36
56600;BME280;51832;48.152;11.530;2024-02-21T16:41:41;95391.59;;;16.58;29.67
56600;BME280;51832;48.152;11.530;2024-02-21T16:46:41;95383.09;;;16.51;30.01
56600;BME280;51832;48.152;11.530;2024-02-21T16:51:42;95381.19;;;16.41;30.26
56600;BME280;51832;48.152;11.530;2024-02-21T16:56:42;95376.88;;;16.30;30.23
56600;BME280;51832;48.152;11.530;2024-02-21T17:01:44;95378.22;;;16.32;30.55
56600;BME280;51832;48.152;11.530;2024-02-21T17:06:46;95383.66;;;16.06;31.18
56600;BME280;51832;48.152;11.530;2024-02-21T17:11:46;95375.97;;;16.04;31.36
56600;BME280;51832;48.152;11.530;2024-02-21T17:16:47;95370.16;;;16.07;31.14
56600;BME280;51832;48.152;11.530;2024-02-21T17:21:48;95356.44;;;16.25;31.25
56600;BME280;51832;48.152;11.530;2024-02-21T17:26:49;95344.88;;;15.94;31.70
56600;BME280;51832;48.152;11.530;2024-02-21T17:31:50;95347.53;;;15.99;32.20
56600;BME280;51832;48.152;11.530;2024-02-21T17:36:50;95345.63;;;15.90;32.64
56600;BME280;51832;48.152;11.530;2024-02-21T17:41:50;95333.88;;;15.76;32.83
56600;BME280;51832;48.152;11.530;2024-02-21T17:46:53;95329.63;;;15.75;33.17
56600;BME280;51832;48.152;11.530;2024-02-21T17:51:53;95327.94;;;15.58;33.41
56600;BME280;51832;48.152;11.530;2024-02-21T17:56:54;95313.91;;;15.63;34.06
56600;BME280;51832;48.152;11.530;2024-02-21T18:01:54;95310.06;;;15.49;34.78
56600;BME280;51832;48.152;11.530;2024-02-21T18:06:55;95299.03;;;15.25;35.37
56600;BME280;51832;48.152;11.530;2024-02-21T18:11:55;95292.94;;;14.87;36.46
56600;BME280;51832;48.152;11.530;2024-02-21T18:16:56;95289.66;;;14.75;37.87
56600;BME280;51832;48.152;11.530;2024-02-21T18:21:57;95281.59;;;14.65;38.84
56600;BME280;51832;48.152;11.530;2024-02-21T18:26:57;95279.25;;;14.69;39.44
56600;BME280;51832;48.152;11.530;2024-02-21T18:31:58;95268.34;;;14.65;40.08
56600;BME280;51832;48.152;11.530;2024-02-21T18:36:59;95267.34;;;14.71;40.71
56600;BME280;51832;48.152;11.530;2024-02-21T18:42:00;95265.44;;;14.67;41.27
56600;BME280;51832;48.152;11.530;2024-02-21T18:47:00;95249.72;;;14.55;42.46
56600;BME280;51832;48.152;11.530;2024-02-21T18:52:01;95250.47;;;14.50;43.74
56600;BME280;51832;48.152;11.530;2024-02-21T18:57:01;95252.63;;;14.05;45.93
56600;BME280;51832;48.152;11.530;2024-02-21T19:02:02;95237.75;;;13.77;46.30
56600;BME280;51832;48.152;11.530;2024-02-21T19:07:02;95238.22;;;13.96;46.82
56600;BME280;51832;48.152;11.530;2024-02-21T19:12:03;95220.88;;;14.05;46.63
56600;BME280;51832;48.152;11.530;2024-02-21T19:17:04;95216.44;;;14.10;46.82
56600;BME280;51832;48.152;11.530;2024-02-21T19:22:05;95210.13;;;13.90;47.92
56600;BME280;51832;48.152;11.530;2024-02-21T19:27:06;95216.19;;;14.12;47.09
56600;BME280;51832;48.152;11.530;2024-02-21T19:32:06;95215.59;;;13.83;46.51
56600;BME280;51832;48.152;11.530;2024-02-21T19:37:07;95214.34;;;13.64;46.49
56600;BME280;51832;48.152;11.530;2024-02-21T19:42:07;95210.81;;;13.36;47.26
56600;BME280;51832;48.152;11.530;2024-02-21T19:47:08;95201.59;;;13.39;47.72
56600;BME280;51832;48.152;11.530;2024-02-21T19:52:09;95202.22;;;13.46;47.46
56600;BME280;51832;48.152;11.530;2024-02-21T19:57:09;95186.75;;;13.16;48.15
56600;BME280;51832;48.152;11.530;2024-02-21T20:02:10;95184.19;;;13.21;47.69
56600;BME280;51832;48.152;11.530;2024-02-21T20:07:11;95175.28;;;12.55;48.87
56600;BME280;51832;48.152;11.530;2024-02-21T20:12:11;95174.69;;;12.87;48.30
56600;BME280;51832;48.152;11.530;2024-02-21T20:17:13;95173.84;;;12.64;49.45
56600;BME280;51832;48.152;11.530;2024-02-21T20:22:13;95160.22;;;12.72;49.12
56600;BME280;51832;48.152;11.530;2024-02-21T20:27:14;95165.28;;;12.57;49.86
56600;BME280;51832;48.152;11.530;2024-02-21T20:32:14;95155.84;;;12.44;50.39
56600;BME280;51832;48.152;11.530;2024-02-21T20:37:15;95147.66;;;12.96;48.57
56600;BME280;51832;48.152;11.530;2024-02-21T20:42:17;95144.22;;;12.79;48.46
56600;BME280;51832;48.152;11.530;2024-02-21T20:47:18;95133.91;;;12.61;49.53
56600;BME280;51832;48.152;11.530;2024-02-21T20:52:20;95126.78;;;12.78;48.54
56600;BME280;51832;48.152;11.530;2024-02-21T20:57:20;95129.19;;;12.63;48.78
56600;BME280;51832;48.152;11.530;2024-02-21T21:02:21;95129.88;;;13.13;47.65
56600;BME280;51832;48.152;11.530;2024-02-21T21:07:22;95126.72;;;13.11;48.09
56600;BME280;51832;48.152;11.530;2024-02-21T21:12:22;95122.09;;;13.02;48.34
56600;BME280;51832;48.152;11.530;2024-02-21T21:17:23;95110.28;;;12.88;47.95
56600;BME280;51832;48.152;11.530;2024-02-21T21:22:23;95114.72;;;12.82;47.89
56600;BME280;51832;48.152;11.530;2024-02-21T21:27:24;95107.03;;;12.80;48.47
56600;BME280;51832;48.152;11.530;2024-02-21T21:32:26;95103.84;;;13.00;48.07
56600;BME280;51832;48.152;11.530;2024-02-21T21:37:27;95096.34;;;12.70;48.56
56600;BME280;51832;48.152;11.530;2024-02-21T21:42:28;95092.66;;;12.93;48.07
56600;BME280;51832;48.152;11.530;2024-02-21T21:47:29;95084.66;;;12.88;48.32
56600;BME280;51832;48.152;11.530;2024-02-21T21:52:29;95075.72;;;13.11;47.53
56600;BME280;51832;48.152;11.530;2024-02-21T21:57:31;95087.78;;;12.85;48.63
56600;BME280;51832;48.152;11.530;2024-02-21T22:02:31;95081.91;;;12.78;49.08
56600;BME280;51832;48.152;11.530;2024-02-21T22:07:32;95078.22;;;12.79;48.82
56600;BME280;51832;48.152;11.530;2024-02-21T22:12:33;95078.19;;;12.96;48.08
56600;BME280;51832;48.152;11.530;2024-02-21T22:17:33;95059.63;;;12.91;48.64
56600;BME280;51832;48.152;11.530;2024-02-21T22:22:34;95060.25;;;12.98;48.85
56600;BME280;51832;48.152;11.530;2024-02-21T22:27:35;95058.81;;;12.90;49.16
56600;BME280;51832;48.152;11.530;2024-02-21T22:32:36;95060.34;;;12.86;49.55
56600;BME280;51832;48.152;11.530;2024-02-21T22:37:36;95041.78;;;12.98;49.05
56600;BME280;51832;48.152;11.530;2024-02-21T22:42:36;95039.28;;;13.13;48.70
56600;BME280;51832;48.152;11.530;2024-02-21T22:47:37;95028.41;;;13.31;48.13
56600;BME280;51832;48.152;11.530;2024-02-21T22:52:37;95006.81;;;13.39;47.94
56600;BME280;51832;48.152;11.530;2024-02-21T22:57:38;94993.31;;;13.14;46.32
56600;BME280;51832;48.152;11.530;2024-02-21T23:02:41;94986.81;;;13.75;46.65
56600;BME280;51832;48.152;11.530;2024-02-21T23:07:44;94966.75;;;13.79;46.98
56600;BME280;51832;48.152;11.530;2024-02-21T23:12:49;94957.91;;;13.69;46.69
56600;BME280;51832;48.152;11.530;2024-02-21T23:17:50;94955.38;;;13.84;46.50
56600;BME280;51832;48.152;11.530;2024-02-21T23:22:50;94935.38;;;13.98;45.72
56600;BME280;51832;48.152;11.530;2024-02-21T23:27:51;94929.28;;;13.93;45.25
56600;BME280;51832;48.152;11.530;2024-02-21T23:32:51;94923.34;;;13.75;45.64
56600;BME280;51832;48.152;11.530;2024-02-21T23:37:52;94908.81;;;13.78;45.77
56600;BME280;51832;48.152;11.530;2024-02-21T23:42:53;94900.81;;;14.10;45.22
56600;BME280;51832;48.152;11.530;2024-02-21T23:47:54;94880.72;;;14.14;45.58
56600;BME280;51832;48.152;11.530;2024-02-21T23:52:54;94886.78;;;14.09;45.16
56600;BME280;51832;48.152;11.530;2024-02-21T23:57:55;94879.88;;;14.03;45.74
